createdAt,value
2018-06-11T00:00:09.093Z,9.60
2018-06-11T00:02:40.848Z,12.20
2018-06-11T00:05:12.219Z,11.00
2018-06-11T00:07:42.888Z,11.93
2018-06-11T00:10:13.643Z,9.33
2018-06-11T00:12:44.337Z,9.03
2018-06-11T00:15:15.193Z,9.93
2018-06-11T00:17:45.922Z,8.70
2018-06-11T00:20:16.985Z,8.80
2018-06-11T00:22:47.933Z,8.40
2018-06-11T00:25:18.961Z,9.37
2018-06-11T00:27:49.816Z,9.58
2018-06-11T00:30:20.928Z,11.73
2018-06-11T00:32:52.000Z,11.10
2018-06-11T00:35:23.037Z,13.13
2018-06-11T00:37:54.088Z,17.23
2018-06-11T00:40:25.008Z,11.73
2018-06-11T00:42:55.516Z,10.10
2018-06-11T00:45:26.154Z,13.13
2018-06-11T00:47:57.669Z,12.03
2018-06-11T00:50:28.787Z,11.73
2018-06-11T00:52:59.770Z,11.83
2018-06-11T00:55:48.225Z,13.00
2018-06-11T00:58:18.965Z,17.90
2018-06-11T01:00:49.724Z,16.67
2018-06-11T01:03:20.483Z,15.97
2018-06-11T01:05:51.219Z,10.90
2018-06-11T01:08:21.922Z,29.80
2018-06-11T01:10:52.626Z,21.27
2018-06-11T01:13:23.340Z,17.70
2018-06-11T01:15:54.154Z,12.70
2018-06-11T01:18:25.080Z,14.50
2018-06-11T01:20:55.822Z,13.40
2018-06-11T01:23:26.493Z,14.13
2018-06-11T01:25:57.261Z,12.60
2018-06-11T01:28:27.993Z,11.90
2018-06-11T01:30:58.775Z,12.20
2018-06-11T01:33:29.497Z,14.40
2018-06-11T01:36:00.213Z,9.67
2018-06-11T01:38:30.975Z,16.43
2018-06-11T01:41:01.693Z,13.80
2018-06-11T01:43:33.650Z,11.00
2018-06-11T01:46:05.407Z,14.23
2018-06-11T01:48:36.104Z,9.87
2018-06-11T01:51:07.054Z,11.30
2018-06-11T01:53:37.841Z,10.50
2018-06-11T01:56:08.619Z,20.20
2018-06-11T01:58:39.376Z,9.28
2018-06-11T02:01:10.077Z,9.77
2018-06-11T02:03:40.774Z,10.72
2018-06-11T02:06:11.525Z,14.40
2018-06-11T02:08:42.234Z,17.67
2018-06-11T02:11:12.928Z,8.83
2018-06-11T02:13:43.475Z,10.03
2018-06-11T02:16:14.512Z,9.27
2018-06-11T02:18:45.437Z,10.95
2018-06-11T02:21:16.032Z,13.10
2018-06-11T02:23:46.981Z,8.60
2018-06-11T02:26:18.227Z,13.60
2018-06-11T02:28:49.210Z,10.82
2018-06-11T02:31:20.165Z,11.63
2018-06-11T02:33:50.958Z,11.25
2018-06-11T02:36:22.252Z,13.17
2018-06-11T02:38:53.230Z,22.93
2018-06-11T02:41:24.460Z,19.17
2018-06-11T02:43:55.834Z,33.50
2018-06-11T02:46:27.154Z,12.73
2018-06-11T02:48:57.944Z,20.90
2018-06-11T02:51:28.725Z,19.30
2018-06-11T02:53:59.483Z,19.30
2018-06-11T02:56:31.195Z,13.20
2018-06-11T02:59:01.937Z,14.67
2018-06-11T03:01:33.731Z,16.65
2018-06-11T03:04:04.458Z,15.60
2018-06-11T03:06:35.259Z,8.73
2018-06-11T03:09:07.613Z,11.30
2018-06-11T03:11:38.325Z,13.22
2018-06-11T03:14:08.646Z,12.53
2018-06-11T03:16:39.374Z,10.88
2018-06-11T03:19:10.064Z,12.70
2018-06-11T03:21:40.787Z,12.53
2018-06-11T03:24:11.481Z,14.87
2018-06-11T03:26:42.262Z,11.88
2018-06-11T03:29:13.055Z,12.43
2018-06-11T03:31:44.224Z,16.57
2018-06-11T03:34:15.009Z,15.43
2018-06-11T03:36:45.798Z,12.15
2018-06-11T03:39:17.285Z,17.73
2018-06-11T03:41:48.086Z,10.23
2018-06-11T03:44:18.768Z,7.30
2018-06-11T03:46:49.500Z,12.30
2018-06-11T03:49:20.237Z,10.37
2018-06-11T03:51:50.985Z,11.20
2018-06-11T03:54:21.729Z,7.70
2018-06-11T03:56:52.502Z,7.63
2018-06-11T03:59:23.261Z,13.53
2018-06-11T04:01:53.965Z,7.50
2018-06-11T04:04:24.662Z,9.50
2018-06-11T04:06:55.352Z,8.00
2018-06-11T04:09:26.337Z,12.57
2018-06-11T04:11:57.033Z,8.30
2018-06-11T04:14:27.755Z,9.80
2018-06-11T04:16:58.484Z,13.80
2018-06-11T04:19:29.250Z,14.13
2018-06-11T04:22:00.096Z,10.33
2018-06-11T04:24:30.811Z,15.20
2018-06-11T04:27:01.549Z,14.07
2018-06-11T04:29:32.301Z,10.67
2018-06-11T04:32:03.070Z,11.73
2018-06-11T04:34:34.019Z,11.70
2018-06-11T04:37:04.823Z,8.83
2018-06-11T04:39:35.877Z,10.33
2018-06-11T04:42:06.717Z,9.87
2018-06-11T04:44:37.413Z,11.83
2018-06-11T04:47:09.076Z,9.70
2018-06-11T04:49:39.807Z,11.43
2018-06-11T04:52:10.615Z,11.40
2018-06-11T04:54:41.662Z,10.80
2018-06-11T04:57:13.398Z,13.70
2018-06-11T04:59:44.123Z,7.40
2018-06-11T05:02:14.865Z,10.40
2018-06-11T05:04:45.912Z,6.92
2018-06-11T05:07:17.653Z,12.43
2018-06-11T05:09:48.377Z,8.03
2018-06-11T05:12:19.118Z,12.23
2018-06-11T05:14:49.888Z,7.78
2018-06-11T05:17:20.826Z,16.03
2018-06-11T05:19:51.681Z,9.85
2018-06-11T05:22:22.044Z,11.33
2018-06-11T05:24:52.798Z,12.10
2018-06-11T05:27:23.528Z,6.60
2018-06-11T05:29:54.314Z,14.67
2018-06-11T05:32:25.164Z,8.20
2018-06-11T05:34:56.038Z,9.30
2018-06-11T05:37:26.781Z,11.07
2018-06-11T05:39:57.663Z,16.20
2018-06-11T05:42:28.389Z,14.40
2018-06-11T05:44:59.463Z,8.90
2018-06-11T05:47:30.413Z,20.47
2018-06-11T05:52:26.458Z,13.83
2018-06-11T05:54:57.312Z,10.87
2018-06-11T05:57:28.029Z,8.80
2018-06-11T05:59:58.914Z,11.50
2018-06-11T06:02:29.648Z,14.70
2018-06-11T06:05:00.409Z,13.70
2018-06-11T06:07:31.202Z,16.20
2018-06-11T06:10:02.751Z,12.83
2018-06-11T06:12:34.257Z,11.00
2018-06-11T06:15:05.187Z,13.83
2018-06-11T06:17:35.968Z,12.30
2018-06-11T06:20:07.725Z,13.33
2018-06-11T06:22:38.694Z,19.60
2018-06-11T06:25:09.524Z,17.90
2018-06-11T06:27:40.249Z,14.93
2018-06-11T06:30:10.953Z,16.17
2018-06-11T06:32:41.758Z,18.37
2018-06-11T06:35:12.482Z,11.70
2018-06-11T06:37:42.843Z,10.80
2018-06-11T06:40:13.474Z,13.40
2018-06-11T06:42:44.216Z,18.62
2018-06-11T06:45:14.967Z,13.90
2018-06-11T06:47:46.760Z,16.00
2018-06-11T06:50:17.521Z,24.03
2018-06-11T06:52:48.262Z,13.38
2018-06-11T06:55:18.989Z,16.33
2018-06-11T06:57:49.360Z,12.00
2018-06-11T07:00:20.031Z,21.17
2018-06-11T07:02:50.771Z,13.15
2018-06-11T07:05:21.464Z,13.30
2018-06-11T07:07:52.234Z,16.67
2018-06-11T07:10:22.985Z,29.33
2018-06-11T07:12:54.345Z,15.67
2018-06-11T07:15:25.060Z,17.97
2018-06-11T07:17:55.806Z,10.60
2018-06-11T07:20:26.221Z,18.87
2018-06-11T07:22:57.667Z,15.10
2018-06-11T07:25:29.545Z,19.60
2018-06-11T07:28:01.790Z,11.93
2018-06-11T07:30:33.679Z,12.27
2018-06-11T07:33:04.634Z,16.13
2018-06-11T07:35:35.720Z,14.53
2018-06-11T07:38:06.995Z,15.20
2018-06-11T07:40:38.014Z,16.40
2018-06-11T07:43:09.136Z,19.27
2018-06-11T07:45:40.253Z,17.10
2018-06-11T07:48:11.352Z,15.30
2018-06-11T07:50:42.424Z,16.35
2018-06-11T07:53:13.658Z,16.83
2018-06-11T07:55:44.824Z,15.05
2018-06-11T07:58:16.123Z,15.53
2018-06-11T08:00:47.163Z,16.60
2018-06-11T08:03:18.242Z,16.57
2018-06-11T08:05:49.366Z,15.10
2018-06-11T08:08:20.598Z,16.53
2018-06-11T08:10:51.640Z,19.37
2018-06-11T08:13:23.292Z,19.87
2018-06-11T08:15:54.259Z,17.97
2018-06-11T08:18:25.283Z,17.23
2018-06-11T08:20:56.325Z,24.77
2018-06-11T08:23:27.218Z,20.93
2018-06-11T08:25:58.327Z,22.13
2018-06-11T08:28:29.329Z,14.97
2018-06-11T08:31:00.392Z,14.73
2018-06-11T08:33:31.432Z,18.73
2018-06-11T08:36:02.444Z,16.27
2018-06-11T08:38:34.226Z,15.70
2018-06-11T08:41:05.402Z,18.37
2018-06-11T08:43:36.373Z,15.53
2018-06-11T08:46:07.476Z,16.33
2018-06-11T08:48:38.528Z,17.20
2018-06-11T08:51:09.495Z,16.20
2018-06-11T08:53:40.581Z,15.08
2018-06-11T08:56:11.511Z,17.70
2018-06-11T08:58:42.569Z,20.93
2018-06-11T09:01:14.394Z,15.40
2018-06-11T09:03:45.415Z,21.12
2018-06-11T09:06:16.497Z,17.77
2018-06-11T09:08:47.497Z,15.80
2018-06-11T09:11:18.552Z,20.80
2018-06-11T09:13:50.893Z,19.40
2018-06-11T09:16:21.818Z,18.30
2018-06-11T09:18:52.764Z,17.33
2018-06-11T09:21:23.781Z,14.53
2018-06-11T09:23:54.847Z,16.17
2018-06-11T09:26:25.813Z,18.03
2018-06-11T09:28:57.210Z,12.90
2018-06-11T09:31:28.458Z,14.80
2018-06-11T09:33:59.509Z,14.93
2018-06-11T09:36:30.569Z,15.37
2018-06-11T09:39:01.712Z,16.80
2018-06-11T09:41:32.764Z,21.13
2018-06-11T09:44:03.940Z,16.47
2018-06-11T09:46:35.031Z,14.80
2018-06-11T09:49:06.231Z,15.00
2018-06-11T09:51:37.927Z,11.93
2018-06-11T09:54:09.153Z,14.33
2018-06-11T09:56:40.294Z,11.35
2018-06-11T09:59:12.487Z,15.83
2018-06-11T10:01:43.540Z,11.83
2018-06-11T10:04:14.673Z,15.47
2018-06-11T10:06:45.843Z,11.85
2018-06-11T10:09:16.950Z,16.37
2018-06-11T10:11:47.819Z,16.27
2018-06-11T10:14:19.005Z,12.00
2018-06-11T10:16:50.078Z,14.18
2018-06-11T10:19:21.388Z,15.07
2018-06-11T10:21:52.288Z,30.25
2018-06-11T10:24:23.221Z,18.40
2018-06-11T10:26:54.270Z,14.90
2018-06-11T10:29:25.207Z,13.07
2018-06-11T10:31:56.201Z,25.93
2018-06-11T10:34:29.398Z,18.57
2018-06-11T10:37:00.445Z,30.07
2018-06-11T10:39:31.463Z,21.40
2018-06-11T10:42:02.460Z,13.70
2018-06-11T10:44:33.622Z,11.63
2018-06-11T10:47:04.507Z,13.40
2018-06-11T10:49:35.662Z,14.17
2018-06-11T10:52:06.589Z,13.80
2018-06-11T10:54:38.789Z,15.27
2018-06-11T10:57:09.797Z,17.00
2018-06-11T10:59:41.256Z,15.80
2018-06-11T11:02:12.184Z,13.20
2018-06-11T11:04:42.821Z,13.28
2018-06-11T11:07:13.689Z,12.43
2018-06-11T11:09:44.697Z,14.50
2018-06-11T11:12:15.806Z,13.13
2018-06-11T11:14:47.976Z,12.35
2018-06-11T11:17:19.085Z,15.53
2018-06-11T11:19:53.803Z,13.35
2018-06-11T11:22:24.964Z,13.23
2018-06-11T11:24:56.431Z,12.87
2018-06-11T11:27:27.421Z,11.37
2018-06-11T11:29:58.153Z,18.13
2018-06-11T11:32:28.965Z,11.47
2018-06-11T11:35:00.059Z,11.80
2018-06-11T11:37:31.017Z,12.70
2018-06-11T11:40:02.066Z,14.10
2018-06-11T11:42:33.127Z,12.20
2018-06-11T11:45:04.476Z,12.33
2018-06-11T11:47:35.506Z,10.95
2018-06-11T11:50:06.620Z,12.30
2018-06-11T11:52:37.768Z,14.10
2018-06-11T11:55:09.950Z,12.03
2018-06-11T11:57:41.000Z,14.33
2018-06-11T12:00:12.303Z,12.50
2018-06-11T12:02:44.208Z,10.03
2018-06-11T12:05:15.379Z,11.47
2018-06-11T12:07:46.522Z,11.55
2018-06-11T12:10:17.676Z,10.40
2018-06-11T12:12:48.967Z,16.07
2018-06-11T12:15:20.124Z,10.43
2018-06-11T12:17:51.198Z,12.73
2018-06-11T12:20:22.363Z,9.63
2018-06-11T12:22:53.312Z,12.07
2018-06-11T12:25:25.090Z,10.47
2018-06-11T12:27:56.111Z,14.33
2018-06-11T12:30:27.378Z,10.03
2018-06-11T12:32:58.467Z,12.73
2018-06-11T12:35:29.647Z,12.67
2018-06-11T12:38:01.973Z,13.10
2018-06-11T12:40:33.240Z,13.47
2018-06-11T12:43:04.344Z,12.63
2018-06-11T12:45:35.366Z,11.83
2018-06-11T12:48:06.637Z,15.97
2018-06-11T12:50:37.758Z,9.18
2018-06-11T12:53:08.780Z,15.43
2018-06-11T12:55:40.405Z,14.65
2018-06-11T12:58:12.115Z,14.90
2018-06-11T13:00:42.822Z,16.95
2018-06-11T13:03:14.405Z,11.57
2018-06-11T13:05:45.571Z,14.20
2018-06-11T13:08:16.678Z,12.40
2018-06-11T13:10:47.615Z,12.55
2018-06-11T13:13:18.703Z,11.80
2018-06-11T13:15:49.866Z,13.75
2018-06-11T13:18:21.053Z,12.80
2018-06-11T13:20:52.319Z,13.63
2018-06-11T13:23:23.558Z,15.50
2018-06-11T13:25:54.509Z,15.37
2018-06-11T13:28:25.663Z,18.83
2018-06-11T13:30:57.843Z,14.40
2018-06-11T13:33:29.309Z,13.00
2018-06-11T13:36:00.435Z,18.27
2018-06-11T13:38:31.547Z,14.93
2018-06-11T13:41:02.610Z,15.67
2018-06-11T13:43:33.627Z,14.73
2018-06-11T13:46:04.209Z,14.83
2018-06-11T13:48:35.599Z,22.83
2018-06-11T13:51:06.783Z,25.03
2018-06-11T13:53:38.099Z,15.90
2018-06-11T13:56:08.733Z,13.60
2018-06-11T13:58:39.640Z,11.45
2018-06-11T14:01:10.718Z,10.90
2018-06-11T14:03:41.762Z,15.45
2018-06-11T14:06:12.830Z,12.43
2018-06-11T14:08:43.742Z,13.28
2018-06-11T14:11:14.927Z,20.97
2018-06-11T14:13:45.858Z,16.45
2018-06-11T14:16:16.927Z,15.47
2018-06-11T14:18:47.948Z,12.65
2018-06-11T14:21:18.920Z,13.60
2018-06-11T14:23:50.034Z,11.60
2018-06-11T14:26:21.225Z,16.40
2018-06-11T14:28:52.509Z,15.17
2018-06-11T14:31:23.683Z,18.50
2018-06-11T14:33:54.785Z,12.50
2018-06-11T14:36:25.915Z,17.47
2018-06-11T14:38:57.116Z,14.87
2018-06-11T14:41:28.291Z,11.43
2018-06-11T14:43:59.425Z,15.90
2018-06-11T14:46:31.728Z,8.77
2018-06-11T14:49:03.058Z,17.30
2018-06-11T14:51:36.712Z,24.93
2018-06-11T14:54:07.609Z,22.10
2018-06-11T14:56:38.945Z,22.50
2018-06-11T14:59:10.984Z,15.63
2018-06-11T15:01:43.644Z,21.45
2018-06-11T15:04:14.815Z,24.70
2018-06-11T15:06:47.005Z,17.60
2018-06-11T15:09:18.173Z,18.83
2018-06-11T15:11:49.279Z,25.02
2018-06-11T15:14:20.219Z,16.50
2018-06-11T15:16:51.284Z,15.83
2018-06-11T15:19:21.967Z,14.70
2018-06-11T15:21:53.199Z,13.50
2018-06-11T15:24:24.195Z,13.23
2018-06-11T15:26:55.169Z,15.40
2018-06-11T15:29:26.199Z,15.43
2018-06-11T15:31:57.203Z,16.57
2018-06-11T15:34:28.255Z,14.87
2018-06-11T15:36:59.456Z,12.77
2018-06-11T15:39:30.552Z,15.87
2018-06-11T15:42:01.534Z,13.83
2018-06-11T15:44:32.589Z,16.80
2018-06-11T15:47:03.495Z,15.67
2018-06-11T15:49:35.492Z,11.77
2018-06-11T15:52:06.504Z,13.40
2018-06-11T15:54:37.333Z,14.83
2018-06-11T15:57:08.136Z,14.37
2018-06-11T15:59:39.108Z,13.57
2018-06-11T16:02:10.222Z,10.10
2018-06-11T16:04:41.449Z,14.83
2018-06-11T16:07:12.727Z,10.33
2018-06-11T16:09:43.958Z,10.80
2018-06-11T16:12:14.768Z,9.33
2018-06-11T16:14:46.169Z,10.63
2018-06-11T16:17:17.402Z,8.00
2018-06-11T16:19:48.338Z,8.58
2018-06-11T16:22:19.407Z,13.60
2018-06-11T16:24:50.645Z,12.23
2018-06-11T16:27:22.244Z,24.93
2018-06-11T16:29:53.244Z,9.50
2018-06-11T16:32:24.398Z,12.43
2018-06-11T16:34:55.552Z,10.93
2018-06-11T16:37:26.739Z,10.40
2018-06-11T16:39:57.972Z,11.80
2018-06-11T16:42:29.196Z,8.60
2018-06-11T16:45:01.112Z,8.63
2018-06-11T16:47:32.285Z,11.20
2018-06-11T16:50:03.550Z,11.87
2018-06-11T16:52:34.873Z,15.90
2018-06-11T16:55:06.104Z,10.20
2018-06-11T16:57:37.417Z,7.47
2018-06-11T17:00:08.477Z,9.53
2018-06-11T17:02:39.315Z,9.00
2018-06-11T17:05:10.536Z,21.27
2018-06-11T17:07:41.226Z,12.35
2018-06-11T17:10:12.160Z,8.40
2018-06-11T17:12:43.272Z,9.00
2018-06-11T17:15:14.456Z,15.20
2018-06-11T17:17:45.783Z,8.43
2018-06-11T17:20:16.903Z,9.63
2018-06-11T17:22:48.122Z,10.48
2018-06-11T17:25:19.239Z,8.07
2018-06-11T17:27:50.401Z,9.88
2018-06-11T17:30:21.588Z,9.33
2018-06-11T17:32:52.792Z,7.15
2018-06-11T17:35:23.947Z,8.77
2018-06-11T17:37:55.072Z,7.30
2018-06-11T17:40:26.077Z,13.00
2018-06-11T17:42:57.223Z,8.43
2018-06-11T17:45:28.504Z,6.40
2018-06-11T17:47:59.723Z,7.53
2018-06-11T17:50:30.248Z,8.30
2018-06-11T17:53:01.529Z,6.50
2018-06-11T17:55:32.523Z,10.10
2018-06-11T17:58:03.830Z,11.20
2018-06-11T18:00:36.356Z,13.83
2018-06-11T18:03:08.222Z,8.90
2018-06-11T18:05:39.324Z,9.03
2018-06-11T18:08:10.159Z,8.50
2018-06-11T18:10:41.182Z,10.05
2018-06-11T18:13:12.382Z,10.43
2018-06-11T18:15:44.038Z,11.57
2018-06-11T18:18:15.206Z,8.53
2018-06-11T18:20:46.333Z,8.33
2018-06-11T18:23:17.181Z,6.67
2018-06-11T18:25:49.110Z,11.57
2018-06-11T18:28:19.960Z,7.90
2018-06-11T18:30:50.946Z,11.88
2018-06-11T18:33:21.769Z,9.57
2018-06-11T18:35:52.721Z,10.85
2018-06-11T18:38:23.554Z,12.13
2018-06-11T18:40:54.381Z,9.90
2018-06-11T18:43:25.608Z,6.77
2018-06-11T18:45:56.455Z,8.67
2018-06-11T18:48:28.536Z,10.07
2018-06-11T18:51:00.383Z,10.17
2018-06-11T18:53:33.702Z,7.20
2018-06-11T18:56:04.596Z,9.73
2018-06-11T18:58:36.121Z,12.90
2018-06-11T19:01:06.984Z,8.83
2018-06-11T19:03:39.011Z,5.70
2018-06-11T19:06:09.629Z,12.83
2018-06-11T19:08:40.470Z,9.50
2018-06-11T19:11:11.311Z,11.03
2018-06-11T19:13:42.371Z,10.75
2018-06-11T19:16:14.453Z,10.33
2018-06-11T19:18:45.402Z,10.72
2018-06-11T19:21:16.409Z,7.90
2018-06-11T19:23:47.396Z,8.67
2018-06-11T19:26:18.337Z,6.37
2018-06-11T19:28:50.401Z,7.08
2018-06-11T19:31:21.431Z,10.53
2018-06-11T19:33:52.306Z,10.28
2018-06-11T19:36:23.238Z,8.30
2018-06-11T19:38:54.189Z,8.03
2018-06-11T19:41:25.671Z,9.00
2018-06-11T19:43:56.604Z,6.70
2018-06-11T19:46:28.247Z,15.90
2018-06-11T19:48:59.430Z,12.03
2018-06-11T19:51:30.325Z,9.67
2018-06-11T19:54:01.280Z,6.53
2018-06-11T19:56:32.256Z,5.90
2018-06-11T19:59:04.180Z,8.03
2018-06-11T20:01:36.408Z,5.13
2018-06-11T20:04:07.278Z,7.40
2018-06-11T20:06:38.331Z,8.73
2018-06-11T20:09:10.402Z,7.93
2018-06-11T20:11:40.909Z,7.03
2018-06-11T20:14:11.288Z,6.57
2018-06-11T20:16:42.138Z,7.73
2018-06-11T20:19:13.281Z,7.22
2018-06-11T20:21:44.157Z,10.83
2018-06-11T20:24:15.659Z,12.55
2018-06-11T20:26:46.519Z,4.13
2018-06-11T20:29:17.378Z,5.93
2018-06-11T20:31:48.839Z,13.13
2018-06-11T20:34:19.171Z,7.60
2018-06-11T20:36:49.882Z,4.00
2018-06-11T20:39:20.939Z,6.60
2018-06-11T20:41:52.086Z,4.50
2018-06-11T20:44:22.963Z,11.13
2018-06-11T20:46:53.920Z,9.40
2018-06-11T20:49:24.833Z,6.07
2018-06-11T20:51:55.669Z,8.37
2018-06-11T20:54:27.497Z,8.63
2018-06-11T20:56:58.995Z,5.60
2018-06-11T20:59:30.884Z,11.27
2018-06-11T21:02:02.684Z,9.87
2018-06-11T21:04:33.562Z,7.80
2018-06-11T21:07:04.503Z,9.55
2018-06-11T21:09:35.385Z,7.37
2018-06-11T21:12:06.205Z,5.23
2018-06-11T21:14:37.080Z,6.80
2018-06-11T21:17:08.022Z,9.35
2018-06-11T21:19:38.843Z,9.90
2018-06-11T21:22:09.656Z,8.25
2018-06-11T21:24:40.519Z,6.43
2018-06-11T21:27:11.420Z,8.17
2018-06-11T21:29:42.243Z,15.13
2018-06-11T21:32:13.118Z,10.40
2018-06-11T21:34:43.911Z,4.07
2018-06-11T21:37:14.798Z,8.23
2018-06-11T21:39:45.733Z,6.90
2018-06-11T21:42:16.248Z,12.30
2018-06-11T21:44:46.965Z,7.90
2018-06-11T21:47:17.820Z,6.63
2018-06-11T21:49:48.713Z,6.87
2018-06-11T21:52:19.523Z,12.00
2018-06-11T21:54:50.506Z,10.33
2018-06-11T21:57:21.308Z,15.00
2018-06-11T21:59:52.152Z,7.47
2018-06-11T22:02:22.947Z,9.27
2018-06-11T22:04:53.865Z,9.10
2018-06-11T22:07:24.590Z,11.33
2018-06-11T22:09:55.366Z,7.17
2018-06-11T22:12:26.157Z,9.40
2018-06-11T22:14:57.046Z,10.40
2018-06-11T22:17:27.853Z,8.83
2018-06-11T22:19:59.049Z,12.03
2018-06-11T22:22:29.833Z,14.70
2018-06-11T22:25:00.611Z,11.00
2018-06-11T22:27:31.407Z,11.10
2018-06-11T22:30:01.746Z,7.80
2018-06-11T22:32:32.380Z,12.40
2018-06-11T22:35:03.187Z,10.45
2018-06-11T22:37:34.034Z,12.20
2018-06-11T22:40:05.123Z,13.23
2018-06-11T22:42:36.157Z,12.97
2018-06-11T22:45:06.973Z,13.20
2018-06-11T22:47:37.684Z,14.00
2018-06-11T22:50:08.451Z,14.17
2018-06-11T22:52:39.210Z,8.77
2018-06-11T22:55:09.969Z,10.13
2018-06-11T22:57:40.700Z,10.13
2018-06-11T23:00:12.065Z,11.88
2018-06-11T23:02:43.211Z,14.97
2018-06-11T23:05:14.522Z,12.43
2018-06-11T23:07:51.210Z,10.00
2018-06-11T23:10:25.080Z,8.20
2018-06-11T23:12:55.837Z,9.63
2018-06-11T23:15:27.796Z,11.90
2018-06-11T23:18:05.358Z,9.67
2018-06-11T23:20:36.132Z,10.37
2018-06-11T23:23:06.953Z,10.78
2018-06-11T23:28:15.767Z,20.10
2018-06-11T23:30:46.515Z,16.27
2018-06-11T23:33:17.374Z,26.67
2018-06-11T23:35:48.422Z,23.57
2018-06-11T23:38:19.355Z,30.60
2018-06-11T23:40:50.109Z,33.20
2018-06-11T23:43:20.857Z,28.90
2018-06-11T23:45:51.567Z,31.90
2018-06-11T23:48:22.285Z,37.30
2018-06-11T23:50:53.237Z,33.30
2018-06-11T23:53:23.947Z,40.60
2018-06-11T23:55:54.697Z,40.80
2018-06-11T23:58:26.363Z,41.67
